sensor_id;sensor_type;location;lat;lon;timestamp;P1;durP1;ratioP1;P2;durP2;ratioP2
65691;SDS011;52411;52.716;6.696;2022-11-15T00:01:31;32.83;;;17.15;;
65691;SDS011;52411;52.716;6.696;2022-11-15T00:03:57;32.03;;;17.52;;
65691;SDS011;52411;52.716;6.696;2022-11-15T00:06:22;35.17;;;17.33;;
65691;SDS011;52411;52.716;6.696;2022-11-15T00:08:48;33.13;;;17.58;;
65691;SDS011;52411;52.716;6.696;2022-11-15T00:11:13;29.55;;;16.98;;
65691;SDS011;52411;52.716;6.696;2022-11-15T00:13:39;33.75;;;16.88;;
65691;SDS011;52411;52.716;6.696;2022-11-15T00:16:05;36.95;;;18.08;;
65691;SDS011;52411;52.716;6.696;2022-11-15T00:18:31;30.08;;;16.60;;
65691;SDS011;52411;52.716;6.696;2022-11-15T00:21:02;32.22;;;17.65;;
65691;SDS011;52411;52.716;6.696;2022-11-15T00:23:35;32.17;;;17.55;;
65691;SDS011;52411;52.716;6.696;2022-11-15T00:26:01;33.95;;;18.15;;
65691;SDS011;52411;52.716;6.696;2022-11-15T00:28:27;34.10;;;17.48;;
65691;SDS011;52411;52.716;6.696;2022-11-15T00:30:52;31.40;;;16.92;;
65691;SDS011;52411;52.716;6.696;2022-11-15T00:33:18;34.85;;;17.10;;
65691;SDS011;52411;52.716;6.696;2022-11-15T00:35:44;31.70;;;16.63;;
65691;SDS011;52411;52.716;6.696;2022-11-15T00:38:09;33.60;;;17.30;;
65691;SDS011;52411;52.716;6.696;2022-11-15T00:40:35;35.05;;;17.20;;
65691;SDS011;52411;52.716;6.696;2022-11-15T00:43:00;31.05;;;17.42;;
65691;SDS011;52411;52.716;6.696;2022-11-15T00:45:26;38.67;;;17.55;;
65691;SDS011;52411;52.716;6.696;2022-11-15T00:47:52;34.88;;;16.83;;
65691;SDS011;52411;52.716;6.696;2022-11-15T00:50:18;32.25;;;16.58;;
65691;SDS011;52411;52.716;6.696;2022-11-15T00:52:44;31.48;;;16.80;;
65691;SDS011;52411;52.716;6.696;2022-11-15T00:55:13;30.35;;;17.02;;
65691;SDS011;52411;52.716;6.696;2022-11-15T00:57:40;32.95;;;16.90;;
65691;SDS011;52411;52.716;6.696;2022-11-15T01:00:06;34.35;;;17.55;;
65691;SDS011;52411;52.716;6.696;2022-11-15T01:02:32;34.75;;;16.88;;
65691;SDS011;52411;52.716;6.696;2022-11-15T01:04:58;30.55;;;16.05;;
65691;SDS011;52411;52.716;6.696;2022-11-15T01:07:23;31.25;;;16.80;;
65691;SDS011;52411;52.716;6.696;2022-11-15T01:09:49;32.35;;;16.38;;
65691;SDS011;52411;52.716;6.696;2022-11-15T01:12:14;33.45;;;16.73;;
65691;SDS011;52411;52.716;6.696;2022-11-15T01:14:40;33.45;;;17.52;;
65691;SDS011;52411;52.716;6.696;2022-11-15T01:17:06;34.45;;;16.92;;
65691;SDS011;52411;52.716;6.696;2022-11-15T01:19:31;30.50;;;16.25;;
65691;SDS011;52411;52.716;6.696;2022-11-15T01:21:57;32.53;;;16.48;;
65691;SDS011;52411;52.716;6.696;2022-11-15T01:24:22;32.35;;;16.13;;
65691;SDS011;52411;52.716;6.696;2022-11-15T01:26:48;32.72;;;17.10;;
65691;SDS011;52411;52.716;6.696;2022-11-15T01:29:13;30.90;;;16.70;;
65691;SDS011;52411;52.716;6.696;2022-11-15T01:31:39;33.60;;;17.65;;
65691;SDS011;52411;52.716;6.696;2022-11-15T01:34:05;31.90;;;17.00;;
65691;SDS011;52411;52.716;6.696;2022-11-15T01:36:30;35.25;;;16.88;;
65691;SDS011;52411;52.716;6.696;2022-11-15T01:38:57;35.65;;;18.13;;
65691;SDS011;52411;52.716;6.696;2022-11-15T01:41:27;32.05;;;16.55;;
65691;SDS011;52411;52.716;6.696;2022-11-15T01:43:57;29.40;;;15.88;;
65691;SDS011;52411;52.716;6.696;2022-11-15T01:46:43;32.85;;;16.75;;
65691;SDS011;52411;52.716;6.696;2022-11-15T01:49:17;33.38;;;16.90;;
65691;SDS011;52411;52.716;6.696;2022-11-15T01:51:44;34.85;;;16.55;;
65691;SDS011;52411;52.716;6.696;2022-11-15T01:54:12;31.70;;;17.08;;
65691;SDS011;52411;52.716;6.696;2022-11-15T01:56:45;31.40;;;16.98;;
65691;SDS011;52411;52.716;6.696;2022-11-15T01:59:18;33.33;;;16.77;;
65691;SDS011;52411;52.716;6.696;2022-11-15T02:01:44;40.58;;;17.85;;
65691;SDS011;52411;52.716;6.696;2022-11-15T02:06:41;36.35;;;18.48;;
65691;SDS011;52411;52.716;6.696;2022-11-15T02:09:08;40.92;;;17.50;;
65691;SDS011;52411;52.716;6.696;2022-11-15T02:11:34;38.85;;;17.95;;
65691;SDS011;52411;52.716;6.696;2022-11-15T02:14:00;43.22;;;19.27;;
65691;SDS011;52411;52.716;6.696;2022-11-15T02:25:29;44.65;;;19.13;;
65691;SDS011;52411;52.716;6.696;2022-11-15T02:33:03;42.72;;;19.77;;
65691;SDS011;52411;52.716;6.696;2022-11-15T02:35:58;43.28;;;20.98;;
65691;SDS011;52411;52.716;6.696;2022-11-15T02:41:13;46.40;;;18.98;;
65691;SDS011;52411;52.716;6.696;2022-11-15T02:44:02;48.35;;;20.27;;
65691;SDS011;52411;52.716;6.696;2022-11-15T02:46:35;47.50;;;21.13;;
65691;SDS011;52411;52.716;6.696;2022-11-15T02:49:33;47.03;;;20.50;;
65691;SDS011;52411;52.716;6.696;2022-11-15T02:52:00;43.70;;;20.45;;
65691;SDS011;52411;52.716;6.696;2022-11-15T02:54:29;48.63;;;22.15;;
65691;SDS011;52411;52.716;6.696;2022-11-15T02:56:58;42.88;;;21.33;;
65691;SDS011;52411;52.716;6.696;2022-11-15T03:00:02;43.92;;;20.13;;
65691;SDS011;52411;52.716;6.696;2022-11-15T03:05:43;49.10;;;22.33;;
65691;SDS011;52411;52.716;6.696;2022-11-15T03:11:13;51.63;;;21.92;;
65691;SDS011;52411;52.716;6.696;2022-11-15T03:16:20;54.72;;;22.88;;
65691;SDS011;52411;52.716;6.696;2022-11-15T03:18:58;51.33;;;22.42;;
65691;SDS011;52411;52.716;6.696;2022-11-15T03:24:05;49.15;;;21.77;;
65691;SDS011;52411;52.716;6.696;2022-11-15T03:26:32;52.13;;;23.25;;
65691;SDS011;52411;52.716;6.696;2022-11-15T03:29:12;54.63;;;22.27;;
65691;SDS011;52411;52.716;6.696;2022-11-15T03:31:45;52.75;;;22.08;;
65691;SDS011;52411;52.716;6.696;2022-11-15T03:34:22;56.30;;;22.88;;
65691;SDS011;52411;52.716;6.696;2022-11-15T03:36:52;49.90;;;22.63;;
65691;SDS011;52411;52.716;6.696;2022-11-15T03:39:18;51.17;;;23.35;;
65691;SDS011;52411;52.716;6.696;2022-11-15T03:50:17;53.53;;;24.63;;
65691;SDS011;52411;52.716;6.696;2022-11-15T03:52:45;55.40;;;24.42;;
65691;SDS011;52411;52.716;6.696;2022-11-15T03:55:14;55.97;;;23.88;;
65691;SDS011;52411;52.716;6.696;2022-11-15T03:57:43;60.08;;;25.52;;
65691;SDS011;52411;52.716;6.696;2022-11-15T04:00:09;66.80;;;27.90;;
65691;SDS011;52411;52.716;6.696;2022-11-15T04:02:35;59.50;;;24.75;;
65691;SDS011;52411;52.716;6.696;2022-11-15T04:05:00;59.95;;;26.33;;
65691;SDS011;52411;52.716;6.696;2022-11-15T04:07:26;61.63;;;26.25;;
65691;SDS011;52411;52.716;6.696;2022-11-15T04:09:51;60.13;;;27.15;;
65691;SDS011;52411;52.716;6.696;2022-11-15T04:12:33;66.43;;;26.63;;
65691;SDS011;52411;52.716;6.696;2022-11-15T04:17:33;65.95;;;27.10;;
65691;SDS011;52411;52.716;6.696;2022-11-15T04:19:59;74.28;;;27.85;;
65691;SDS011;52411;52.716;6.696;2022-11-15T04:22:43;65.35;;;27.98;;
65691;SDS011;52411;52.716;6.696;2022-11-15T04:25:28;68.07;;;26.45;;
65691;SDS011;52411;52.716;6.696;2022-11-15T04:27:53;67.65;;;26.90;;
65691;SDS011;52411;52.716;6.696;2022-11-15T04:30:19;62.70;;;26.98;;
65691;SDS011;52411;52.716;6.696;2022-11-15T04:32:45;67.88;;;28.02;;
65691;SDS011;52411;52.716;6.696;2022-11-15T04:35:10;53.50;;;24.80;;
65691;SDS011;52411;52.716;6.696;2022-11-15T04:37:36;54.55;;;25.95;;
65691;SDS011;52411;52.716;6.696;2022-11-15T04:40:02;58.13;;;26.38;;
65691;SDS011;52411;52.716;6.696;2022-11-15T04:42:28;57.80;;;26.55;;
65691;SDS011;52411;52.716;6.696;2022-11-15T04:44:53;59.22;;;25.25;;
65691;SDS011;52411;52.716;6.696;2022-11-15T04:47:19;63.13;;;27.05;;
65691;SDS011;52411;52.716;6.696;2022-11-15T04:49:45;57.17;;;25.65;;
65691;SDS011;52411;52.716;6.696;2022-11-15T04:52:10;60.22;;;26.48;;
65691;SDS011;52411;52.716;6.696;2022-11-15T04:54:36;58.60;;;25.98;;
65691;SDS011;52411;52.716;6.696;2022-11-15T04:57:01;63.65;;;25.67;;
65691;SDS011;52411;52.716;6.696;2022-11-15T04:59:27;62.65;;;25.63;;
65691;SDS011;52411;52.716;6.696;2022-11-15T05:01:52;57.63;;;24.52;;
65691;SDS011;52411;52.716;6.696;2022-11-15T05:04:18;55.50;;;25.45;;
65691;SDS011;52411;52.716;6.696;2022-11-15T05:06:44;57.85;;;25.65;;
65691;SDS011;52411;52.716;6.696;2022-11-15T05:09:10;55.35;;;24.67;;
65691;SDS011;52411;52.716;6.696;2022-11-15T05:11:38;47.92;;;23.98;;
65691;SDS011;52411;52.716;6.696;2022-11-15T05:14:03;51.65;;;23.88;;
65691;SDS011;52411;52.716;6.696;2022-11-15T05:16:29;51.78;;;24.27;;
65691;SDS011;52411;52.716;6.696;2022-11-15T05:18:55;50.17;;;23.67;;
65691;SDS011;52411;52.716;6.696;2022-11-15T05:21:20;53.92;;;24.52;;
65691;SDS011;52411;52.716;6.696;2022-11-15T05:23:46;50.83;;;23.67;;
65691;SDS011;52411;52.716;6.696;2022-11-15T05:26:12;53.22;;;24.45;;
65691;SDS011;52411;52.716;6.696;2022-11-15T05:28:38;53.88;;;24.38;;
65691;SDS011;52411;52.716;6.696;2022-11-15T05:31:05;49.78;;;23.20;;
65691;SDS011;52411;52.716;6.696;2022-11-15T05:33:33;49.47;;;23.85;;
65691;SDS011;52411;52.716;6.696;2022-11-15T05:36:02;47.58;;;22.85;;
65691;SDS011;52411;52.716;6.696;2022-11-15T05:38:37;48.13;;;23.48;;
65691;SDS011;52411;52.716;6.696;2022-11-15T05:41:02;49.83;;;22.75;;
65691;SDS011;52411;52.716;6.696;2022-11-15T05:43:29;48.58;;;23.90;;
65691;SDS011;52411;52.716;6.696;2022-11-15T05:45:58;46.22;;;22.90;;
65691;SDS011;52411;52.716;6.696;2022-11-15T05:48:26;46.70;;;23.15;;
65691;SDS011;52411;52.716;6.696;2022-11-15T05:50:51;51.92;;;23.20;;
65691;SDS011;52411;52.716;6.696;2022-11-15T05:53:18;46.35;;;21.85;;
65691;SDS011;52411;52.716;6.696;2022-11-15T05:55:46;45.35;;;23.23;;
65691;SDS011;52411;52.716;6.696;2022-11-15T05:58:12;44.33;;;22.30;;
65691;SDS011;52411;52.716;6.696;2022-11-15T06:00:37;41.53;;;21.70;;
65691;SDS011;52411;52.716;6.696;2022-11-15T06:03:03;48.13;;;21.42;;
65691;SDS011;52411;52.716;6.696;2022-11-15T06:05:29;42.38;;;20.55;;
65691;SDS011;52411;52.716;6.696;2022-11-15T06:07:57;43.40;;;21.55;;
65691;SDS011;52411;52.716;6.696;2022-11-15T06:10:24;40.17;;;21.30;;
65691;SDS011;52411;52.716;6.696;2022-11-15T06:12:56;44.58;;;21.40;;
65691;SDS011;52411;52.716;6.696;2022-11-15T06:15:26;42.35;;;20.45;;
65691;SDS011;52411;52.716;6.696;2022-11-15T06:17:51;40.65;;;20.80;;
65691;SDS011;52411;52.716;6.696;2022-11-15T06:20:17;45.78;;;20.80;;
65691;SDS011;52411;52.716;6.696;2022-11-15T06:22:43;39.80;;;20.20;;
65691;SDS011;52411;52.716;6.696;2022-11-15T06:25:09;44.70;;;20.33;;
65691;SDS011;52411;52.716;6.696;2022-11-15T06:27:34;36.35;;;19.33;;
65691;SDS011;52411;52.716;6.696;2022-11-15T06:30:00;43.88;;;21.85;;
65691;SDS011;52411;52.716;6.696;2022-11-15T06:32:25;36.72;;;20.38;;
65691;SDS011;52411;52.716;6.696;2022-11-15T06:34:51;41.67;;;21.05;;
65691;SDS011;52411;52.716;6.696;2022-11-15T06:37:17;39.65;;;20.25;;
65691;SDS011;52411;52.716;6.696;2022-11-15T06:39:42;40.47;;;20.65;;
65691;SDS011;52411;52.716;6.696;2022-11-15T06:42:08;42.13;;;21.00;;
65691;SDS011;52411;52.716;6.696;2022-11-15T06:44:34;38.10;;;20.13;;
65691;SDS011;52411;52.716;6.696;2022-11-15T06:46:59;35.85;;;19.80;;
65691;SDS011;52411;52.716;6.696;2022-11-15T06:49:25;44.58;;;20.73;;
65691;SDS011;52411;52.716;6.696;2022-11-15T06:51:50;38.85;;;20.80;;
65691;SDS011;52411;52.716;6.696;2022-11-15T06:54:16;34.50;;;19.70;;
65691;SDS011;52411;52.716;6.696;2022-11-15T06:56:42;41.13;;;19.90;;
65691;SDS011;52411;52.716;6.696;2022-11-15T06:59:07;36.05;;;19.73;;
65691;SDS011;52411;52.716;6.696;2022-11-15T07:01:33;37.65;;;19.60;;
65691;SDS011;52411;52.716;6.696;2022-11-15T07:03:58;38.70;;;20.50;;
65691;SDS011;52411;52.716;6.696;2022-11-15T07:06:24;38.80;;;20.73;;
65691;SDS011;52411;52.716;6.696;2022-11-15T07:08:49;37.42;;;19.60;;
65691;SDS011;52411;52.716;6.696;2022-11-15T07:11:15;36.60;;;20.35;;
65691;SDS011;52411;52.716;6.696;2022-11-15T07:13:40;37.65;;;19.38;;
65691;SDS011;52411;52.716;6.696;2022-11-15T07:16:07;39.08;;;20.02;;
65691;SDS011;52411;52.716;6.696;2022-11-15T07:18:35;36.90;;;19.33;;
65691;SDS011;52411;52.716;6.696;2022-11-15T07:21:06;34.67;;;19.25;;
65691;SDS011;52411;52.716;6.696;2022-11-15T07:23:36;38.55;;;19.65;;
65691;SDS011;52411;52.716;6.696;2022-11-15T07:26:03;34.65;;;19.42;;
65691;SDS011;52411;52.716;6.696;2022-11-15T07:28:28;38.22;;;19.55;;
65691;SDS011;52411;52.716;6.696;2022-11-15T07:30:54;37.63;;;19.45;;
65691;SDS011;52411;52.716;6.696;2022-11-15T07:33:20;38.80;;;19.70;;
65691;SDS011;52411;52.716;6.696;2022-11-15T07:35:45;34.67;;;18.63;;
65691;SDS011;52411;52.716;6.696;2022-11-15T07:38:14;38.90;;;19.90;;
65691;SDS011;52411;52.716;6.696;2022-11-15T07:40:40;32.92;;;19.10;;
65691;SDS011;52411;52.716;6.696;2022-11-15T07:43:07;33.15;;;18.85;;
65691;SDS011;52411;52.716;6.696;2022-11-15T07:45:33;36.35;;;20.38;;
65691;SDS011;52411;52.716;6.696;2022-11-15T07:47:59;39.28;;;20.60;;
65691;SDS011;52411;52.716;6.696;2022-11-15T07:50:25;37.60;;;19.83;;
65691;SDS011;52411;52.716;6.696;2022-11-15T07:52:56;35.65;;;20.02;;
65691;SDS011;52411;52.716;6.696;2022-11-15T07:55:26;38.08;;;20.65;;
65691;SDS011;52411;52.716;6.696;2022-11-15T07:57:59;39.05;;;20.65;;
65691;SDS011;52411;52.716;6.696;2022-11-15T08:00:29;35.85;;;20.45;;
65691;SDS011;52411;52.716;6.696;2022-11-15T08:03:05;35.85;;;21.35;;
65691;SDS011;52411;52.716;6.696;2022-11-15T08:05:41;36.53;;;20.08;;
65691;SDS011;52411;52.716;6.696;2022-11-15T08:08:09;36.65;;;19.92;;
65691;SDS011;52411;52.716;6.696;2022-11-15T08:10:36;42.50;;;21.10;;
65691;SDS011;52411;52.716;6.696;2022-11-15T08:13:03;38.20;;;22.15;;
65691;SDS011;52411;52.716;6.696;2022-11-15T08:15:30;41.42;;;21.30;;
65691;SDS011;52411;52.716;6.696;2022-11-15T08:17:56;40.72;;;20.92;;
65691;SDS011;52411;52.716;6.696;2022-11-15T08:20:23;37.33;;;20.90;;
65691;SDS011;52411;52.716;6.696;2022-11-15T08:22:50;41.17;;;21.70;;
65691;SDS011;52411;52.716;6.696;2022-11-15T08:25:16;36.00;;;20.77;;
65691;SDS011;52411;52.716;6.696;2022-11-15T08:27:42;34.17;;;19.73;;
65691;SDS011;52411;52.716;6.696;2022-11-15T08:30:08;37.55;;;20.15;;
65691;SDS011;52411;52.716;6.696;2022-11-15T08:32:34;38.03;;;21.13;;
65691;SDS011;52411;52.716;6.696;2022-11-15T08:34:59;38.58;;;20.40;;
65691;SDS011;52411;52.716;6.696;2022-11-15T08:37:25;35.60;;;19.88;;
65691;SDS011;52411;52.716;6.696;2022-11-15T08:39:50;37.00;;;20.60;;
65691;SDS011;52411;52.716;6.696;2022-11-15T08:42:16;34.30;;;19.60;;
65691;SDS011;52411;52.716;6.696;2022-11-15T08:44:42;31.73;;;19.23;;
65691;SDS011;52411;52.716;6.696;2022-11-15T08:47:07;30.50;;;18.65;;
65691;SDS011;52411;52.716;6.696;2022-11-15T08:49:35;33.30;;;19.25;;
65691;SDS011;52411;52.716;6.696;2022-11-15T08:52:01;29.45;;;18.05;;
65691;SDS011;52411;52.716;6.696;2022-11-15T08:54:27;30.17;;;18.38;;
65691;SDS011;52411;52.716;6.696;2022-11-15T08:56:52;29.60;;;18.35;;
65691;SDS011;52411;52.716;6.696;2022-11-15T08:59:18;28.40;;;17.55;;
65691;SDS011;52411;52.716;6.696;2022-11-15T09:01:44;31.25;;;17.17;;
65691;SDS011;52411;52.716;6.696;2022-11-15T09:04:09;26.23;;;16.92;;
65691;SDS011;52411;52.716;6.696;2022-11-15T09:06:35;28.30;;;17.35;;
65691;SDS011;52411;52.716;6.696;2022-11-15T09:09:00;26.60;;;16.08;;
65691;SDS011;52411;52.716;6.696;2022-11-15T09:11:26;26.70;;;16.40;;
65691;SDS011;52411;52.716;6.696;2022-11-15T09:13:52;24.65;;;15.77;;
65691;SDS011;52411;52.716;6.696;2022-11-15T09:16:18;25.35;;;15.48;;
65691;SDS011;52411;52.716;6.696;2022-11-15T09:18:43;23.80;;;15.88;;
65691;SDS011;52411;52.716;6.696;2022-11-15T09:21:09;25.23;;;16.38;;
65691;SDS011;52411;52.716;6.696;2022-11-15T09:23:35;24.27;;;15.63;;
65691;SDS011;52411;52.716;6.696;2022-11-15T09:26:01;25.98;;;16.52;;
65691;SDS011;52411;52.716;6.696;2022-11-15T09:28:28;24.98;;;16.02;;
65691;SDS011;52411;52.716;6.696;2022-11-15T09:30:56;26.35;;;17.25;;
65691;SDS011;52411;52.716;6.696;2022-11-15T09:33:23;26.65;;;16.45;;
65691;SDS011;52411;52.716;6.696;2022-11-15T09:35:49;25.75;;;16.88;;
65691;SDS011;52411;52.716;6.696;2022-11-15T09:38:14;27.08;;;17.55;;
65691;SDS011;52411;52.716;6.696;2022-11-15T09:40:40;30.50;;;18.00;;
65691;SDS011;52411;52.716;6.696;2022-11-15T09:43:27;30.08;;;18.80;;
65691;SDS011;52411;52.716;6.696;2022-11-15T09:46:30;31.77;;;19.48;;
65691;SDS011;52411;52.716;6.696;2022-11-15T09:48:59;31.85;;;19.23;;
65691;SDS011;52411;52.716;6.696;2022-11-15T09:54:31;33.58;;;19.27;;
65691;SDS011;52411;52.716;6.696;2022-11-15T10:00:10;27.70;;;17.10;;
65691;SDS011;52411;52.716;6.696;2022-11-15T10:03:06;28.48;;;16.52;;
65691;SDS011;52411;52.716;6.696;2022-11-15T10:05:54;30.48;;;17.95;;
65691;SDS011;52411;52.716;6.696;2022-11-15T10:11:26;33.28;;;20.20;;
65691;SDS011;52411;52.716;6.696;2022-11-15T10:13:55;33.13;;;19.63;;
65691;SDS011;52411;52.716;6.696;2022-11-15T10:16:41;37.03;;;21.30;;
65691;SDS011;52411;52.716;6.696;2022-11-15T10:22:00;33.78;;;19.20;;
65691;SDS011;52411;52.716;6.696;2022-11-15T10:24:34;40.58;;;19.98;;
65691;SDS011;52411;52.716;6.696;2022-11-15T10:27:11;31.92;;;18.48;;
65691;SDS011;52411;52.716;6.696;2022-11-15T10:29:48;30.45;;;18.48;;
65691;SDS011;52411;52.716;6.696;2022-11-15T10:32:16;29.23;;;16.60;;
65691;SDS011;52411;52.716;6.696;2022-11-15T10:34:44;32.15;;;17.48;;
65691;SDS011;52411;52.716;6.696;2022-11-15T10:37:10;26.42;;;15.65;;
65691;SDS011;52411;52.716;6.696;2022-11-15T10:39:35;28.95;;;16.23;;
65691;SDS011;52411;52.716;6.696;2022-11-15T10:42:17;22.80;;;14.50;;
65691;SDS011;52411;52.716;6.696;2022-11-15T10:44:51;23.30;;;13.90;;
65691;SDS011;52411;52.716;6.696;2022-11-15T10:47:27;22.05;;;12.73;;
65691;SDS011;52411;52.716;6.696;2022-11-15T10:49:58;21.90;;;13.52;;
65691;SDS011;52411;52.716;6.696;2022-11-15T10:52:30;18.85;;;12.00;;
65691;SDS011;52411;52.716;6.696;2022-11-15T10:55:01;19.17;;;12.75;;
65691;SDS011;52411;52.716;6.696;2022-11-15T10:57:49;20.08;;;11.63;;
65691;SDS011;52411;52.716;6.696;2022-11-15T11:05:28;16.50;;;10.80;;
65691;SDS011;52411;52.716;6.696;2022-11-15T11:07:58;14.90;;;9.68;;
65691;SDS011;52411;52.716;6.696;2022-11-15T11:10:26;13.85;;;9.48;;
65691;SDS011;52411;52.716;6.696;2022-11-15T11:12:52;14.82;;;8.93;;
65691;SDS011;52411;52.716;6.696;2022-11-15T11:15:18;13.50;;;8.63;;
65691;SDS011;52411;52.716;6.696;2022-11-15T11:20:28;15.25;;;8.13;;
65691;SDS011;52411;52.716;6.696;2022-11-15T11:26:26;11.15;;;7.75;;
65691;SDS011;52411;52.716;6.696;2022-11-15T11:32:15;13.32;;;8.10;;
65691;SDS011;52411;52.716;6.696;2022-11-15T11:35:08;11.77;;;7.32;;
65691;SDS011;52411;52.716;6.696;2022-11-15T11:37:46;14.25;;;7.63;;
65691;SDS011;52411;52.716;6.696;2022-11-15T11:48:53;11.50;;;6.82;;
65691;SDS011;52411;52.716;6.696;2022-11-15T11:51:28;10.75;;;6.20;;
65691;SDS011;52411;52.716;6.696;2022-11-15T11:54:13;9.90;;;6.45;;
65691;SDS011;52411;52.716;6.696;2022-11-15T11:56:45;11.43;;;6.10;;
65691;SDS011;52411;52.716;6.696;2022-11-15T12:01:53;11.80;;;5.78;;
65691;SDS011;52411;52.716;6.696;2022-11-15T12:04:29;7.75;;;5.13;;
65691;SDS011;52411;52.716;6.696;2022-11-15T12:09:39;9.02;;;5.35;;
65691;SDS011;52411;52.716;6.696;2022-11-15T12:17:29;10.18;;;5.15;;
65691;SDS011;52411;52.716;6.696;2022-11-15T12:20:02;10.27;;;5.57;;
65691;SDS011;52411;52.716;6.696;2022-11-15T12:25:17;9.82;;;4.97;;
65691;SDS011;52411;52.716;6.696;2022-11-15T12:27:52;10.20;;;5.28;;
65691;SDS011;52411;52.716;6.696;2022-11-15T12:30:49;8.88;;;5.32;;
65691;SDS011;52411;52.716;6.696;2022-11-15T12:33:36;7.27;;;5.00;;
65691;SDS011;52411;52.716;6.696;2022-11-15T12:38:55;8.05;;;5.30;;
65691;SDS011;52411;52.716;6.696;2022-11-15T12:41:22;7.40;;;3.67;;
65691;SDS011;52411;52.716;6.696;2022-11-15T12:43:58;6.55;;;3.42;;
65691;SDS011;52411;52.716;6.696;2022-11-15T12:49:55;6.50;;;3.90;;
65691;SDS011;52411;52.716;6.696;2022-11-15T12:59:51;5.47;;;4.03;;
65691;SDS011;52411;52.716;6.696;2022-11-15T13:02:28;5.00;;;3.08;;
65691;SDS011;52411;52.716;6.696;2022-11-15T13:04:55;4.07;;;2.80;;
65691;SDS011;52411;52.716;6.696;2022-11-15T13:17:52;6.20;;;3.13;;
65691;SDS011;52411;52.716;6.696;2022-11-15T13:20:23;3.58;;;2.08;;
65691;SDS011;52411;52.716;6.696;2022-11-15T13:22:53;5.65;;;2.40;;
65691;SDS011;52411;52.716;6.696;2022-11-15T13:28:10;6.32;;;2.83;;
65691;SDS011;52411;52.716;6.696;2022-11-15T13:30:40;4.22;;;2.38;;
65691;SDS011;52411;52.716;6.696;2022-11-15T13:35:52;6.80;;;2.63;;
65691;SDS011;52411;52.716;6.696;2022-11-15T13:41:00;4.93;;;2.83;;
65691;SDS011;52411;52.716;6.696;2022-11-15T13:43:41;6.00;;;3.50;;
65691;SDS011;52411;52.716;6.696;2022-11-15T13:46:11;6.75;;;3.80;;
65691;SDS011;52411;52.716;6.696;2022-11-15T13:48:52;6.60;;;3.90;;
65691;SDS011;52411;52.716;6.696;2022-11-15T13:54:26;6.03;;;4.60;;
65691;SDS011;52411;52.716;6.696;2022-11-15T14:01:54;7.55;;;5.22;;
65691;SDS011;52411;52.716;6.696;2022-11-15T14:04:22;8.18;;;5.07;;
65691;SDS011;52411;52.716;6.696;2022-11-15T14:06:51;8.35;;;5.55;;
65691;SDS011;52411;52.716;6.696;2022-11-15T14:09:39;7.82;;;6.45;;
65691;SDS011;52411;52.716;6.696;2022-11-15T14:14:52;11.35;;;7.63;;
65691;SDS011;52411;52.716;6.696;2022-11-15T14:17:32;10.18;;;7.95;;
65691;SDS011;52411;52.716;6.696;2022-11-15T14:20:00;12.00;;;8.82;;
65691;SDS011;52411;52.716;6.696;2022-11-15T14:22:27;13.65;;;8.43;;
65691;SDS011;52411;52.716;6.696;2022-11-15T14:27:44;10.75;;;8.52;;
65691;SDS011;52411;52.716;6.696;2022-11-15T14:30:29;11.70;;;8.73;;
65691;SDS011;52411;52.716;6.696;2022-11-15T14:32:55;16.90;;;8.30;;
65691;SDS011;52411;52.716;6.696;2022-11-15T14:35:21;14.20;;;8.88;;
65691;SDS011;52411;52.716;6.696;2022-11-15T14:37:48;12.25;;;9.00;;
65691;SDS011;52411;52.716;6.696;2022-11-15T14:40:15;11.18;;;8.57;;
65691;SDS011;52411;52.716;6.696;2022-11-15T14:42:43;14.50;;;8.88;;
65691;SDS011;52411;52.716;6.696;2022-11-15T14:45:20;13.95;;;8.40;;
65691;SDS011;52411;52.716;6.696;2022-11-15T14:47:47;12.70;;;8.10;;
65691;SDS011;52411;52.716;6.696;2022-11-15T14:50:14;10.32;;;8.10;;
65691;SDS011;52411;52.716;6.696;2022-11-15T14:52:41;10.30;;;8.23;;
65691;SDS011;52411;52.716;6.696;2022-11-15T14:57:47;11.65;;;8.75;;
65691;SDS011;52411;52.716;6.696;2022-11-15T15:00:13;11.75;;;7.82;;
65691;SDS011;52411;52.716;6.696;2022-11-15T15:02:40;11.55;;;7.85;;
65691;SDS011;52411;52.716;6.696;2022-11-15T15:07:40;11.23;;;7.50;;
65691;SDS011;52411;52.716;6.696;2022-11-15T15:10:06;10.52;;;7.43;;
65691;SDS011;52411;52.716;6.696;2022-11-15T15:12:33;9.27;;;7.20;;
65691;SDS011;52411;52.716;6.696;2022-11-15T15:14:58;11.25;;;7.07;;
65691;SDS011;52411;52.716;6.696;2022-11-15T15:17:25;9.77;;;7.45;;
65691;SDS011;52411;52.716;6.696;2022-11-15T15:19:52;10.38;;;6.70;;
65691;SDS011;52411;52.716;6.696;2022-11-15T15:22:19;9.38;;;6.30;;
65691;SDS011;52411;52.716;6.696;2022-11-15T15:24:50;8.32;;;6.10;;
65691;SDS011;52411;52.716;6.696;2022-11-15T15:27:16;13.43;;;5.97;;
65691;SDS011;52411;52.716;6.696;2022-11-15T15:29:42;7.07;;;5.20;;
65691;SDS011;52411;52.716;6.696;2022-11-15T15:32:08;7.82;;;5.60;;
65691;SDS011;52411;52.716;6.696;2022-11-15T15:34:35;7.07;;;4.60;;
65691;SDS011;52411;52.716;6.696;2022-11-15T15:37:07;8.40;;;5.20;;
65691;SDS011;52411;52.716;6.696;2022-11-15T15:39:33;6.03;;;4.40;;
65691;SDS011;52411;52.716;6.696;2022-11-15T15:41:59;10.23;;;5.13;;
65691;SDS011;52411;52.716;6.696;2022-11-15T15:44:24;6.22;;;4.20;;
65691;SDS011;52411;52.716;6.696;2022-11-15T15:46:50;7.50;;;4.22;;
65691;SDS011;52411;52.716;6.696;2022-11-15T15:49:16;6.20;;;4.03;;
65691;SDS011;52411;52.716;6.696;2022-11-15T15:51:41;7.38;;;4.10;;
65691;SDS011;52411;52.716;6.696;2022-11-15T15:54:08;10.70;;;4.00;;
65691;SDS011;52411;52.716;6.696;2022-11-15T15:56:34;8.68;;;3.80;;
65691;SDS011;52411;52.716;6.696;2022-11-15T15:58:59;7.97;;;3.95;;
65691;SDS011;52411;52.716;6.696;2022-11-15T16:01:25;8.18;;;4.00;;
65691;SDS011;52411;52.716;6.696;2022-11-15T16:03:51;6.35;;;3.80;;
65691;SDS011;52411;52.716;6.696;2022-11-15T16:06:49;4.78;;;3.38;;
65691;SDS011;52411;52.716;6.696;2022-11-15T16:09:14;8.25;;;4.00;;
65691;SDS011;52411;52.716;6.696;2022-11-15T16:11:41;9.85;;;3.40;;
65691;SDS011;52411;52.716;6.696;2022-11-15T16:14:08;6.18;;;3.45;;
65691;SDS011;52411;52.716;6.696;2022-11-15T16:16:34;5.57;;;3.15;;
65691;SDS011;52411;52.716;6.696;2022-11-15T16:19:01;8.23;;;2.90;;
65691;SDS011;52411;52.716;6.696;2022-11-15T16:21:27;3.78;;;2.45;;
65691;SDS011;52411;52.716;6.696;2022-11-15T16:23:53;8.27;;;3.72;;
65691;SDS011;52411;52.716;6.696;2022-11-15T16:26:28;5.88;;;3.05;;
65691;SDS011;52411;52.716;6.696;2022-11-15T16:28:55;7.70;;;3.30;;
65691;SDS011;52411;52.716;6.696;2022-11-15T16:31:21;6.22;;;3.20;;
65691;SDS011;52411;52.716;6.696;2022-11-15T16:33:46;7.82;;;3.00;;
65691;SDS011;52411;52.716;6.696;2022-11-15T16:36:16;5.05;;;2.75;;
65691;SDS011;52411;52.716;6.696;2022-11-15T16:38:43;5.40;;;3.20;;
65691;SDS011;52411;52.716;6.696;2022-11-15T16:41:08;10.15;;;3.30;;
65691;SDS011;52411;52.716;6.696;2022-11-15T16:43:34;4.75;;;2.67;;
65691;SDS011;52411;52.716;6.696;2022-11-15T16:46:02;5.53;;;2.60;;
65691;SDS011;52411;52.716;6.696;2022-11-15T16:48:33;4.57;;;2.67;;
65691;SDS011;52411;52.716;6.696;2022-11-15T16:50:59;4.78;;;2.60;;
65691;SDS011;52411;52.716;6.696;2022-11-15T16:53:25;4.57;;;2.40;;
65691;SDS011;52411;52.716;6.696;2022-11-15T16:55:51;4.38;;;2.60;;
65691;SDS011;52411;52.716;6.696;2022-11-15T16:58:19;5.70;;;2.60;;
65691;SDS011;52411;52.716;6.696;2022-11-15T17:00:45;4.68;;;2.40;;